Wind From: 13-12-2017 10:08 Until: 14-12-2017 06:00 warning for: Wind Level: Yellow info button

Although rather usual in this region, locally or potentially dangerous phenomena are expected. (such as local winds, summer thunderstorms, rising streams or high waves) Be aware and pay attention to the latest weather updates, especially if you carry out activities exposed to weather or close to a stream or shoreline. 


Meteo18 Weather Cam more information Meteo18 Weather Cam


Thunder radar more information blitzortung!


Rain radar more information rain snow radar


Visit our other weather sites:

Template documentation
and downloads

And another site



Weather Underground History page Text

Daily Summary for February 11, 2016 Units:  Metric    English   Both
« Previous Day
Next Day »
Daily Weekly Monthly Yearly Custom
  High: Low: Average:
Temperature: 4.2 °C -2.5 °C 1.2 °C
Dew Point: 3.0 °C -3.0 °C 0.4 °C
Humidity: 97 % 90 % 95 %
Wind Speed: 4.8 km/h 0.0 km/h 0.2 km/h
Wind Gust: 11.3 km/h - -
Wind:- - SW
Pressure: 1008.4 hPa 1006.7 hPa -
Precipitation: 1.5 mm    
Historical Graphs
 
 
Tabular Data for February 11, 2016
Time Temperature Dew Point Pressure Wind Wind Speed Wind Gust Humidity Rainfall Rate (Hourly)
00:02 0.9 °C -0.3 °C 1007.7 hPa Calm   1.6 km/h 92 % 0.0 mm
00:07 0.9 °C -0.3 °C 1007.7 hPa Calm   1.6 km/h 92 % 0.0 mm
00:12 0.9 °C -0.3 °C 1007.7 hPa Calm   1.6 km/h 92 % 0.0 mm
00:17 0.9 °C -0.1 °C 1007.7 hPa Calm   1.6 km/h 93 % 0.0 mm
00:22 0.7 °C -0.5 °C 1007.7 hPa Calm   1.6 km/h 92 % 0.0 mm
00:27 0.4 °C -0.7 °C 1007.7 hPa Calm   1.6 km/h 92 % 0.0 mm
00:32 0.1 °C -1.2 °C 1007.7 hPa Calm   1.6 km/h 91 % 0.0 mm
00:37 -0.2 °C -1.3 °C 1008.0 hPa Calm     92 % 0.0 mm
00:42 -0.5 °C -1.6 °C 1007.7 hPa Calm     92 % 0.0 mm
00:47 -0.7 °C -1.8 °C 1008.0 hPa Calm     92 % 0.0 mm
00:52 -0.6 °C -1.6 °C 1008.0 hPa Calm     93 % 0.0 mm
00:57 -0.6 °C -1.4 °C 1008.0 hPa Calm     94 % 0.0 mm
01:02 -0.4 °C -1.1 °C 1008.0 hPa Calm     95 % 0.0 mm
01:07 -0.4 °C -1.1 °C 1008.0 hPa Calm     95 % 0.0 mm
01:12 -0.4 °C -1.1 °C 1008.0 hPa Calm     95 % 0.0 mm
01:17 -0.4 °C -1.1 °C 1008.0 hPa Calm     95 % 0.0 mm
01:22 -0.3 °C -1.0 °C 1008.0 hPa Calm   1.6 km/h 95 % 0.0 mm
01:27 -0.3 °C -1.0 °C 1008.0 hPa Calm   1.6 km/h 95 % 0.0 mm
01:37 -0.6 °C -1.4 °C 1008.0 hPa Calm   1.6 km/h 94 % 0.0 mm
01:42 -0.8 °C -1.6 °C 1008.0 hPa Calm   1.6 km/h 94 % 0.0 mm
01:47 -0.8 °C -1.5 °C 1008.0 hPa Calm   1.6 km/h 95 % 0.0 mm
01:52 -0.6 °C -1.2 °C 1008.0 hPa Calm   1.6 km/h 96 % 0.0 mm
01:57 -0.3 °C -0.9 °C 1008.0 hPa Calm   3.2 km/h 96 % 0.0 mm
02:02 -0.1 °C -0.7 °C 1008.0 hPa Calm   3.2 km/h 96 % 0.0 mm
02:07 -0.2 °C -0.9 °C 1008.0 hPa Calm   3.2 km/h 95 % 0.0 mm
02:12 -0.3 °C -1.0 °C 1008.4 hPa Calm   1.6 km/h 95 % 0.0 mm
02:22 -0.6 °C -1.3 °C 1008.4 hPa Calm   1.6 km/h 95 % 0.0 mm
02:27 -0.8 °C -1.5 °C 1008.4 hPa Calm   1.6 km/h 95 % 0.0 mm
02:32 -0.7 °C -1.4 °C 1008.4 hPa Calm   1.6 km/h 95 % 0.0 mm
02:37 -0.8 °C -1.5 °C 1008.4 hPa Calm   1.6 km/h 95 % 0.0 mm
02:42 -0.8 °C -1.5 °C 1008.4 hPa Calm   1.6 km/h 95 % 0.0 mm
02:47 -0.8 °C -1.5 °C 1008.4 hPa Calm   1.6 km/h 95 % 0.0 mm
02:52 -0.9 °C -1.6 °C 1008.4 hPa Calm   1.6 km/h 95 % 0.0 mm
02:57 -1.1 °C -1.8 °C 1008.4 hPa Calm     95 % 0.0 mm
03:02 -1.3 °C -2.0 °C 1008.4 hPa Calm     95 % 0.0 mm
03:07 -1.3 °C -1.9 °C 1008.4 hPa Calm     96 % 0.0 mm
03:12 -1.3 °C -2.0 °C 1008.4 hPa Calm     95 % 0.0 mm
03:17 -1.4 °C -2.1 °C 1008.4 hPa Calm     95 % 0.0 mm
03:22 -1.6 °C -2.3 °C 1008.0 hPa Calm     95 % 0.0 mm
03:32 -1.7 °C -2.3 °C 1008.4 hPa Calm     96 % 0.0 mm
03:37 -1.8 °C -2.4 °C 1008.4 hPa Calm     96 % 0.0 mm
03:42 -1.7 °C -2.3 °C 1008.0 hPa Calm     96 % 0.0 mm
03:47 -1.7 °C -2.3 °C 1008.4 hPa Calm     96 % 0.0 mm
03:57 -1.7 °C -2.3 °C 1008.0 hPa Calm   1.6 km/h 96 % 0.0 mm
04:02 -1.8 °C -2.4 °C 1008.0 hPa Calm   1.6 km/h 96 % 0.0 mm
04:07 -1.9 °C -2.5 °C 1008.0 hPa Calm   1.6 km/h 96 % 0.0 mm
04:12 -2.1 °C -2.7 °C 1008.0 hPa Calm     96 % 0.0 mm
04:22 -2.1 °C -2.5 °C 1008.0 hPa Calm     97 % 0.0 mm
04:27 -2.1 °C -2.5 °C 1008.0 hPa Calm     97 % 0.0 mm
04:32 -2.1 °C -2.5 °C 1008.0 hPa Calm     97 % 0.0 mm
04:37 -2.1 °C -2.5 °C 1008.0 hPa Calm     97 % 0.0 mm
04:42 -2.1 °C -2.5 °C 1008.4 hPa Calm   1.6 km/h 97 % 0.0 mm
04:47 -2.1 °C -2.7 °C 1008.0 hPa Calm   1.6 km/h 96 % 0.0 mm
04:52 -2.2 °C -2.8 °C 1008.4 hPa Calm   1.6 km/h 96 % 0.0 mm
04:57 -2.2 °C -2.8 °C 1008.4 hPa Calm     96 % 0.0 mm
05:07 -2.3 °C -2.9 °C 1008.4 hPa Calm     96 % 0.0 mm
05:12 -2.4 °C -3.0 °C 1008.4 hPa Calm     96 % 0.0 mm
05:17 -2.5 °C -3.0 °C 1008.4 hPa Calm     96 % 0.0 mm
05:22 -2.4 °C -3.0 °C 1008.4 hPa Calm     96 % 0.0 mm
05:27 -2.1 °C -2.5 °C 1008.4 hPa Calm     97 % 0.0 mm
05:32 -1.9 °C -2.3 °C 1008.4 hPa Calm     97 % 0.0 mm
05:37 -1.9 °C -2.3 °C 1008.4 hPa Calm     97 % 0.0 mm
05:42 -2.0 °C -2.4 °C 1008.4 hPa Calm     97 % 0.0 mm
05:47 -2.1 °C -2.5 °C 1008.4 hPa Calm     97 % 0.0 mm
05:52 -2.2 °C -2.6 °C 1008.4 hPa Calm     97 % 0.0 mm
05:57 -2.0 °C -2.4 °C 1008.4 hPa Calm   1.6 km/h 97 % 0.0 mm
06:14 -1.7 °C -2.1 °C 1008.4 hPa Calm   1.6 km/h 97 % 0.0 mm
06:22 -1.8 °C -2.2 °C 1008.4 hPa Calm     97 % 0.0 mm
06:27 -1.8 °C -2.2 °C 1008.4 hPa Calm     97 % 0.0 mm
06:32 -1.7 °C -2.1 °C 1008.4 hPa Calm     97 % 0.0 mm
06:47 -1.6 °C -2.0 °C 1008.4 hPa Calm     97 % 0.0 mm
06:52 -1.5 °C -1.9 °C 1008.4 hPa Calm     97 % 0.0 mm
06:57 -1.5 °C -1.9 °C 1008.4 hPa Calm     97 % 0.0 mm
07:02 -1.5 °C -1.9 °C 1008.4 hPa Calm     97 % 0.0 mm
07:07 -1.5 °C -1.9 °C 1008.4 hPa Calm   1.6 km/h 97 % 0.0 mm
07:12 -1.5 °C -1.9 °C 1008.4 hPa Calm   1.6 km/h 97 % 0.0 mm
07:17 -1.4 °C -1.8 °C 1008.0 hPa Calm   1.6 km/h 97 % 0.0 mm
07:22 -1.4 °C -1.8 °C 1008.0 hPa Calm   1.6 km/h 97 % 0.0 mm
07:27 -1.4 °C -1.8 °C 1008.0 hPa Calm     97 % 0.0 mm
07:37 -1.5 °C -1.9 °C 1008.0 hPa Calm     97 % 0.0 mm
07:42 -1.6 °C -2.0 °C 1008.0 hPa Calm     97 % 0.0 mm
07:47 -1.5 °C -1.9 °C 1008.0 hPa Calm     97 % 0.0 mm
07:52 -1.4 °C -1.8 °C 1008.0 hPa Calm     97 % 0.0 mm
07:57 -1.4 °C -1.8 °C 1008.0 hPa Calm     97 % 0.0 mm
08:02 -1.4 °C -1.8 °C 1008.0 hPa Calm     97 % 0.0 mm
08:12 -1.4 °C -1.8 °C 1008.0 hPa Calm     97 % 0.0 mm
08:22 -1.3 °C -1.7 °C 1008.0 hPa Calm     97 % 0.0 mm
08:27 -1.3 °C -1.7 °C 1008.0 hPa Calm     97 % 0.0 mm
08:32 -1.3 °C -1.7 °C 1008.0 hPa Calm     97 % 0.0 mm
08:37 -1.2 °C -1.6 °C 1008.0 hPa Calm     97 % 0.0 mm
08:42 -1.2 °C -1.6 °C 1008.0 hPa Calm     97 % 0.0 mm
08:52 -1.1 °C -1.5 °C 1008.4 hPa Calm     97 % 0.0 mm
08:57 -1.1 °C -1.5 °C 1008.4 hPa Calm     97 % 0.0 mm
09:02 -0.9 °C -1.3 °C 1008.4 hPa Calm     97 % 0.0 mm
09:07 -0.9 °C -1.3 °C 1008.4 hPa Calm     97 % 0.0 mm
09:12 -0.8 °C -1.2 °C 1008.4 hPa Calm     97 % 0.0 mm
09:22 -0.7 °C -1.1 °C 1008.4 hPa Calm     97 % 0.0 mm
09:27 -0.6 °C -1.0 °C 1008.0 hPa Calm     97 % 0.0 mm
09:37 -0.4 °C -0.8 °C 1008.4 hPa Calm     97 % 0.0 mm
09:42 -0.2 °C -0.6 °C 1008.0 hPa Calm     97 % 0.0 mm
09:47 -0.1 °C -0.5 °C 1008.0 hPa Calm     97 % 0.0 mm
09:52 -0.1 °C -0.5 °C 1008.4 hPa Calm     97 % 0.0 mm
09:57 0.1 °C -0.3 °C 1008.0 hPa Calm     97 % 0.0 mm
10:02 0.1 °C -0.3 °C 1008.4 hPa Calm     97 % 0.0 mm
10:07 0.1 °C -0.3 °C 1008.0 hPa Calm     97 % 0.0 mm
10:12 0.2 °C -0.2 °C 1008.0 hPa Calm     97 % 0.0 mm
10:17 0.3 °C -0.1 °C 1008.0 hPa Calm     97 % 0.0 mm
10:27 0.4 °C 0.0 °C 1008.0 hPa Calm   1.6 km/h 97 % 0.0 mm
10:32 0.5 °C 0.1 °C 1008.0 hPa Calm   1.6 km/h 97 % 0.0 mm
10:37 0.7 °C 0.3 °C 1008.0 hPa Calm   1.6 km/h 97 % 0.0 mm
10:42 0.8 °C 0.4 °C 1008.0 hPa Calm   1.6 km/h 97 % 0.0 mm
10:52 1.4 °C 1.0 °C 1007.7 hPa West 1.6 km/h   97 % 0.0 mm
11:02 1.6 °C 1.2 °C 1007.7 hPa Calm   1.6 km/h 97 % 0.0 mm
11:12 1.9 °C 1.3 °C 1008.0 hPa Calm   3.2 km/h 96 % 0.0 mm
11:17 1.9 °C 1.3 °C 1007.7 hPa Calm   3.2 km/h 96 % 0.0 mm
11:22 2.1 °C 1.4 °C 1007.7 hPa Calm   1.6 km/h 95 % 0.0 mm
11:27 2.1 °C 1.4 °C 1008.0 hPa Calm   1.6 km/h 95 % 0.0 mm
11:32 2.2 °C 1.5 °C 1007.7 hPa Calm   1.6 km/h 95 % 0.0 mm
11:37 2.3 °C 1.6 °C 1007.7 hPa Calm   1.6 km/h 95 % 0.0 mm
11:42 2.3 °C 1.4 °C 1007.7 hPa Calm   1.6 km/h 94 % 0.0 mm
11:47 2.4 °C 1.5 °C 1008.0 hPa Calm   1.6 km/h 94 % 0.0 mm
11:52 2.6 °C 1.9 °C 1008.0 hPa Calm   1.6 km/h 95 % 0.0 mm
11:57 2.8 °C 1.9 °C 1007.7 hPa Calm   1.6 km/h 94 % 0.0 mm
12:02 2.9 °C 2.0 °C 1007.7 hPa Calm   1.6 km/h 94 % 0.0 mm
12:07 3.1 °C 2.2 °C 1007.7 hPa Calm   1.6 km/h 94 % 0.0 mm
12:12 3.2 °C 2.2 °C 1007.7 hPa Calm   1.6 km/h 93 % 0.0 mm
12:17 3.2 °C 2.2 °C 1007.3 hPa Calm   1.6 km/h 93 % 0.0 mm
12:22 3.3 °C 2.3 °C 1007.3 hPa Calm   1.6 km/h 93 % 0.0 mm
12:27 3.3 °C 2.1 °C 1007.3 hPa Calm   1.6 km/h 92 % 0.0 mm
12:32 3.3 °C 2.1 °C 1007.3 hPa Calm   1.6 km/h 92 % 0.0 mm
12:42 3.4 °C 2.2 °C 1007.3 hPa Calm     92 % 0.0 mm
12:47 3.6 °C 2.4 °C 1007.3 hPa Calm     92 % 0.0 mm
12:52 3.6 °C 2.4 °C 1007.3 hPa Calm     92 % 0.0 mm
12:57 3.5 °C 2.2 °C 1007.3 hPa Calm     91 % 0.0 mm
13:02 3.5 °C 2.3 °C 1007.3 hPa Calm     92 % 0.3 mm
13:07 3.5 °C 2.5 °C 1007.0 hPa Calm   1.6 km/h 93 % 0.3 mm
13:17 3.5 °C 2.5 °C 1007.0 hPa Calm   1.6 km/h 93 % 0.5 mm
13:22 3.7 °C 2.7 °C 1007.0 hPa Calm     93 % 0.5 mm
13:27 3.8 °C 2.8 °C 1007.0 hPa Calm     93 % 0.5 mm
13:32 3.8 °C 2.8 °C 1007.0 hPa Calm     93 % 0.5 mm
13:37 3.8 °C 2.8 °C 1007.0 hPa Calm     93 % 0.5 mm
13:42 3.9 °C 2.9 °C 1007.0 hPa Calm     93 % 0.5 mm
13:47 3.9 °C 2.9 °C 1007.0 hPa Calm     93 % 0.5 mm
13:52 3.9 °C 2.9 °C 1007.0 hPa Calm   1.6 km/h 93 % 0.5 mm
13:57 3.8 °C 2.8 °C 1007.0 hPa Calm   1.6 km/h 93 % 0.5 mm
14:02 3.8 °C 2.8 °C 1007.0 hPa Calm   1.6 km/h 93 % 0.5 mm
14:07 3.7 °C 2.5 °C 1007.0 hPa NE 1.6 km/h 1.6 km/h 92 % 0.5 mm
14:12 3.6 °C 2.3 °C 1007.0 hPa Calm   3.2 km/h 91 % 0.5 mm
14:17 3.6 °C 2.3 °C 1007.0 hPa Calm   3.2 km/h 91 % 0.3 mm
14:32 3.7 °C 2.5 °C 1006.7 hPa Calm     92 % 0.5 mm
14:37 3.9 °C 2.7 °C 1006.7 hPa Calm     92 % 0.5 mm
14:42 3.9 °C 2.6 °C 1006.7 hPa Calm     91 % 0.5 mm
14:47 3.8 °C 2.5 °C 1006.7 hPa Calm   1.6 km/h 91 % 0.5 mm
14:52 3.8 °C 2.5 °C 1006.7 hPa Calm   1.6 km/h 91 % 0.5 mm
14:57 3.8 °C 2.5 °C 1006.7 hPa Calm   1.6 km/h 91 % 0.5 mm
15:02 3.7 °C 2.4 °C 1006.7 hPa Calm   1.6 km/h 91 % 0.5 mm
15:07 3.7 °C 2.4 °C 1006.7 hPa Calm   1.6 km/h 91 % 0.5 mm
15:12 3.7 °C 2.5 °C 1006.7 hPa Calm   1.6 km/h 92 % 0.5 mm
15:17 3.8 °C 2.6 °C 1006.7 hPa Calm   1.6 km/h 92 % 0.5 mm
15:22 3.8 °C 2.6 °C 1006.7 hPa Calm   1.6 km/h 92 % 0.5 mm
15:27 3.8 °C 2.5 °C 1006.7 hPa Calm   1.6 km/h 91 % 0.5 mm
15:32 3.8 °C 2.5 °C 1006.7 hPa Calm   1.6 km/h 91 % 0.5 mm
15:37 3.9 °C 2.6 °C 1006.7 hPa Calm   1.6 km/h 91 % 0.5 mm
15:42 3.9 °C 2.6 °C 1006.7 hPa Calm   1.6 km/h 91 % 0.5 mm
15:52 3.9 °C 2.6 °C 1006.7 hPa Calm   1.6 km/h 91 % 0.5 mm
15:57 3.8 °C 2.5 °C 1006.7 hPa Calm   1.6 km/h 91 % 0.5 mm
16:02 3.9 °C 2.7 °C 1006.7 hPa Calm   3.2 km/h 92 % 0.5 mm
16:07 4.1 °C 2.9 °C 1006.7 hPa Calm   3.2 km/h 92 % 0.3 mm
16:17 4.2 °C 2.9 °C 1007.0 hPa Calm   3.2 km/h 91 % 0.3 mm
16:22 4.2 °C 2.9 °C 1007.0 hPa Calm   3.2 km/h 91 % 0.0 mm
16:27 4.1 °C 2.8 °C 1007.0 hPa Calm   1.6 km/h 91 % 0.0 mm
16:32 4.1 °C 2.6 °C 1007.0 hPa Calm   1.6 km/h 90 % 0.0 mm
16:37 4.1 °C 2.6 °C 1007.0 hPa Calm   1.6 km/h 90 % 0.0 mm
16:42 4.2 °C 2.9 °C 1007.0 hPa Calm     91 % 0.0 mm
16:47 4.2 °C 3.0 °C 1007.0 hPa Calm     92 % 0.0 mm
16:52 4.1 °C 2.9 °C 1007.0 hPa Calm     92 % 0.0 mm
16:57 4.1 °C 2.9 °C 1007.0 hPa Calm   1.6 km/h 92 % 0.0 mm
17:02 4.1 °C 2.9 °C 1007.0 hPa SW 1.6 km/h 1.6 km/h 92 % 0.0 mm
17:12 3.9 °C 2.7 °C 1007.0 hPa Calm   3.2 km/h 92 % 0.0 mm
17:17 3.8 °C 2.6 °C 1007.0 hPa SW 1.6 km/h 3.2 km/h 92 % 0.0 mm
17:22 3.8 °C 2.6 °C 1007.0 hPa SW 1.6 km/h 3.2 km/h 92 % 0.0 mm
17:27 3.8 °C 2.6 °C 1007.3 hPa Calm   3.2 km/h 92 % 0.0 mm
17:32 3.8 °C 2.8 °C 1007.3 hPa Calm   3.2 km/h 93 % 0.0 mm
17:37 3.7 °C 2.5 °C 1007.3 hPa Calm   3.2 km/h 92 % 0.0 mm
17:42 3.7 °C 2.7 °C 1007.3 hPa Calm   3.2 km/h 93 % 0.0 mm
17:47 3.6 °C 2.6 °C 1007.3 hPa Calm   3.2 km/h 93 % 0.0 mm
17:52 3.6 °C 2.6 °C 1007.3 hPa SW 3.2 km/h 4.8 km/h 93 % 0.0 mm
17:57 3.6 °C 2.6 °C 1007.3 hPa WSW 1.6 km/h 4.8 km/h 93 % 0.0 mm
18:02 3.5 °C 2.5 °C 1007.3 hPa SW 1.6 km/h 4.8 km/h 93 % 0.0 mm
18:07 3.4 °C 2.5 °C 1007.3 hPa WSW 1.6 km/h 3.2 km/h 94 % 0.0 mm
18:12 3.4 °C 2.5 °C 1007.3 hPa Calm   3.2 km/h 94 % 0.0 mm
18:17 3.3 °C 2.4 °C 1007.3 hPa Calm   3.2 km/h 94 % 0.0 mm
18:22 3.2 °C 2.3 °C 1007.3 hPa South 1.6 km/h 3.2 km/h 94 % 0.0 mm
18:27 3.0 °C 2.1 °C 1007.3 hPa SW 1.6 km/h 3.2 km/h 94 % 0.0 mm
18:32 2.9 °C 2.0 °C 1007.3 hPa Calm   3.2 km/h 94 % 0.0 mm
18:37 2.9 °C 2.2 °C 1007.3 hPa SW 1.6 km/h 3.2 km/h 95 % 0.0 mm
18:47 2.9 °C 2.2 °C 1007.3 hPa Calm   6.4 km/h 95 % 0.0 mm
18:52 2.9 °C 2.2 °C 1007.3 hPa Calm   6.4 km/h 95 % 0.0 mm
18:57 2.9 °C 2.2 °C 1007.3 hPa Calm   6.4 km/h 95 % 0.0 mm
19:02 2.8 °C 2.1 °C 1007.3 hPa WSW 1.6 km/h 4.8 km/h 95 % 0.0 mm
19:07 2.8 °C 2.1 °C 1007.3 hPa Calm   4.8 km/h 95 % 0.0 mm
19:12 2.8 °C 2.1 °C 1007.3 hPa Calm   4.8 km/h 95 % 0.0 mm
19:17 2.7 °C 2.0 °C 1007.3 hPa Calm   4.8 km/h 95 % 0.0 mm
19:22 2.6 °C 1.9 °C 1007.3 hPa Calm   3.2 km/h 95 % 0.0 mm
19:32 2.1 °C 1.2 °C 1007.3 hPa Calm   1.6 km/h 94 % 0.0 mm
19:37 1.8 °C 0.9 °C 1007.3 hPa Calm   1.6 km/h 94 % 0.0 mm
19:42 1.6 °C 0.9 °C 1007.3 hPa Calm   1.6 km/h 95 % 0.0 mm
19:52 1.5 °C 0.9 °C 1007.7 hPa Calm   1.6 km/h 96 % 0.0 mm
19:57 1.6 °C 1.0 °C 1007.7 hPa WSW 1.6 km/h 1.6 km/h 96 % 0.0 mm
20:07 2.2 °C 1.8 °C 1007.7 hPa Calm   8.0 km/h 97 % 0.0 mm
20:12 2.3 °C 1.9 °C 1007.7 hPa SSW 3.2 km/h 8.0 km/h 97 % 0.0 mm
20:17 2.4 °C 1.8 °C 1007.7 hPa WNW 1.6 km/h 6.4 km/h 96 % 0.0 mm
20:22 2.6 °C 2.0 °C 1007.7 hPa Calm   6.4 km/h 96 % 0.0 mm
20:27 2.6 °C 2.0 °C 1007.7 hPa WSW 1.6 km/h 6.4 km/h 96 % 0.0 mm
20:32 2.6 °C 2.0 °C 1007.7 hPa WSW 1.6 km/h 3.2 km/h 96 % 0.0 mm
20:42 2.6 °C 2.0 °C 1007.7 hPa SW 4.8 km/h 4.8 km/h 96 % 0.0 mm
20:52 2.6 °C 2.0 °C 1007.7 hPa WSW 1.6 km/h 6.4 km/h 96 % 0.0 mm
20:57 2.6 °C 2.0 °C 1007.7 hPa SW 4.8 km/h 6.4 km/h 96 % 0.0 mm
21:07 2.6 °C 1.9 °C 1007.7 hPa Calm   6.4 km/h 95 % 0.0 mm
21:12 2.5 °C 1.8 °C 1007.7 hPa Calm   6.4 km/h 95 % 0.0 mm
21:22 2.4 °C 1.7 °C 1007.7 hPa Calm   3.2 km/h 95 % 0.0 mm
21:27 2.4 °C 1.7 °C 1007.3 hPa Calm   3.2 km/h 95 % 0.0 mm
21:32 2.4 °C 1.7 °C 1007.3 hPa Calm   3.2 km/h 95 % 0.0 mm
21:37 2.3 °C 1.6 °C 1007.7 hPa Calm   4.8 km/h 95 % 0.0 mm
21:42 2.3 °C 1.6 °C 1007.7 hPa SW 3.2 km/h 6.4 km/h 95 % 0.0 mm
21:47 2.2 °C 1.5 °C 1007.7 hPa SW 1.6 km/h 8.0 km/h 95 % 0.0 mm
21:52 2.2 °C 1.5 °C 1007.7 hPa WSW 1.6 km/h 11.3 km/h 95 % 0.0 mm
21:57 2.2 °C 1.5 °C 1007.7 hPa WSW 1.6 km/h 11.3 km/h 95 % 0.0 mm
22:02 2.1 °C 1.4 °C 1007.7 hPa SW 3.2 km/h 11.3 km/h 95 % 0.0 mm
22:12 2.1 °C 1.4 °C 1007.3 hPa Calm   9.7 km/h 95 % 0.0 mm
22:17 2.1 °C 1.4 °C 1007.3 hPa Calm   8.0 km/h 95 % 0.0 mm
22:22 2.1 °C 1.4 °C 1007.3 hPa Calm   8.0 km/h 95 % 0.0 mm
22:37 2.2 °C 1.5 °C 1007.3 hPa Calm   4.8 km/h 95 % 0.0 mm
22:42 2.2 °C 1.5 °C 1007.0 hPa Calm   3.2 km/h 95 % 0.0 mm
22:47 2.1 °C 1.4 °C 1007.0 hPa Calm   3.2 km/h 95 % 0.0 mm
22:52 1.9 °C 1.2 °C 1007.0 hPa Calm   3.2 km/h 95 % 0.0 mm
22:57 1.7 °C 0.8 °C 1007.0 hPa Calm   1.6 km/h 94 % 0.0 mm
23:02 1.5 °C 0.6 °C 1007.0 hPa Calm     94 % 0.0 mm
23:07 1.3 °C 0.4 °C 1007.0 hPa Calm     94 % 0.0 mm
23:12 1.1 °C 0.2 °C 1007.0 hPa Calm     94 % 0.0 mm
23:17 1.1 °C 0.4 °C 1006.7 hPa Calm     95 % 0.0 mm
23:22 1.1 °C 0.4 °C 1006.7 hPa Calm     95 % 0.0 mm
23:32 1.1 °C 0.5 °C 1006.7 hPa Calm   1.6 km/h 96 % 0.0 mm
23:37 1.2 °C 0.6 °C 1006.7 hPa Calm   1.6 km/h 96 % 0.0 mm
23:42 1.2 °C 0.6 °C 1006.7 hPa Calm   1.6 km/h 96 % 0.0 mm
23:52 1.3 °C 0.7 °C 1006.7 hPa Calm     96 % 0.0 mm
23:57 1.4 °C 1.0 °C 1006.7 hPa Calm     97 % 0.0 mm
Meteo18
Compliments of Weather Underground - 4 mb

Script developed by  Jim McMurry - jmcmurry@mwt.net Adapted for the template by  Wim van der Kuil - Leuven-Template.eu

You find our weather info also at:

European Weather Network

Weather Underground

Equipment we use:

Weather-station
Davis Vue

Weather-program
Meteohub

Weather-server
Raspberry PI 2 B+

Provider
1 and 1

Davis Vue

Meteohub

Raspberry PI 2 B+

1 and 1